Time;durP1;ratioP1;P1;durP2;ratioP2;P2;SDS_P1;SDS_P2;PMS_P1;PMS_P2;Temp;Humidity;BMP_temperature;BMP_pressure;BME280_temperature;BME280_humidity;BME280_pressure;Samples;Min_cycle;Max_cycle;Signal;HPM_P1;HPM_P2
2024/04/09 00:00:15;;;;;;;1.50;0.90;;;19.60;94.10;;;;;;5303405;26;20491;-79
2024/04/09 00:02:41;;;;;;;1.47;0.90;;;19.60;93.40;;;;;;5317368;26;20263;-78
2024/04/09 00:05:11;;;;;;;1.47;0.90;;;19.70;91.80;;;;;;5304367;26;20614;-78
2024/04/09 00:07:39;;;;;;;1.43;0.90;;;19.80;91.90;;;;;;5309118;26;20613;-79
2024/04/09 00:10:09;;;;;;;1.50;1.00;;;19.80;92.40;;;;;;5304284;26;20527;-80
2024/04/09 00:12:35;;;;;;;1.50;1.10;;;19.80;93.30;;;;;;5310695;26;20682;-80
2024/04/09 00:15:07;;;;;;;1.50;0.90;;;19.70;95.30;;;;;;5305167;26;20598;-80
2024/04/09 00:17:34;;;;;;;1.43;0.90;;;19.70;94.50;;;;;;5313391;26;20505;-79
2024/04/09 00:20:09;;;;;;;1.47;0.90;;;19.60;93.60;;;;;;5306877;26;20554;-80
2024/04/09 00:22:35;;;;;;;1.50;1.00;;;19.50;92.10;;;;;;5318701;26;21118;-80
2024/04/09 00:25:06;;;;;;;1.43;0.90;;;19.60;92.20;;;;;;5304336;26;20491;-79
2024/04/09 00:27:32;;;;;;;1.47;0.90;;;19.50;92.70;;;;;;5318985;26;20393;-79
2024/04/09 00:30:01;;;;;;;1.50;0.90;;;19.50;93.20;;;;;;5307683;26;20492;-79
2024/04/09 00:32:26;;;;;;;1.47;0.90;;;19.50;93.40;;;;;;5313353;26;20553;-79
2024/04/09 00:34:55;;;;;;;1.50;1.10;;;19.50;93.70;;;;;;5309793;26;20468;-80
2024/04/09 00:37:22;;;;;;;1.47;0.90;;;19.50;95.00;;;;;;5303670;26;20263;-80
2024/04/09 00:39:51;;;;;;;1.50;1.00;;;19.40;95.70;;;;;;5314426;26;21410;-78
2024/04/09 00:42:20;;;;;;;1.50;0.90;;;19.40;96.30;;;;;;5299281;26;20639;-79
2024/04/09 00:44:49;;;;;;;1.50;0.90;;;19.30;96.80;;;;;;5308634;26;20464;-80
2024/04/09 00:47:16;;;;;;;1.43;0.90;;;19.30;97.90;;;;;;5317289;26;21386;-80
2024/04/09 00:49:45;;;;;;;1.47;0.90;;;19.20;98.20;;;;;;5308435;26;20530;-79
2024/04/09 00:52:12;;;;;;;1.47;0.90;;;19.20;98.20;;;;;;5310577;26;20629;-79
2024/04/09 00:54:44;;;;;;;1.50;0.97;;;19.10;98.20;;;;;;5311208;26;20479;-79
2024/04/09 00:57:12;;;;;;;1.43;0.90;;;19.00;98.20;;;;;;5307841;26;20502;-79
2024/04/09 00:59:44;;;;;;;1.50;0.90;;;19.00;98.20;;;;;;5309277;26;20480;-78
2024/04/09 01:02:10;;;;;;;1.47;0.90;;;18.90;98.20;;;;;;5311392;26;20981;-79
2024/04/09 01:04:39;;;;;;;1.50;0.90;;;18.80;98.20;;;;;;5310510;26;21061;-79
2024/04/09 01:07:05;;;;;;;1.47;0.90;;;18.70;98.20;;;;;;5309937;26;20497;-78
2024/04/09 01:09:34;;;;;;;1.50;0.90;;;18.70;98.20;;;;;;5310191;26;20499;-79
2024/04/09 01:12:00;;;;;;;1.50;1.00;;;18.60;98.20;;;;;;5300978;26;20364;-79
2024/04/09 01:14:28;;;;;;;1.50;0.90;;;18.50;98.20;;;;;;5311874;26;20471;-79
2024/04/09 01:16:57;;;;;;;1.50;1.00;;;18.40;98.20;;;;;;5310348;26;20502;-79
2024/04/09 01:19:25;;;;;;;1.60;1.30;;;18.30;98.20;;;;;;5311246;26;21088;-78
2024/04/09 01:21:53;;;;;;;1.50;1.00;;;18.30;98.20;;;;;;5305050;26;20501;-79
2024/04/09 01:24:25;;;;;;;1.50;0.90;;;18.20;98.20;;;;;;5317180;26;20471;-79
2024/04/09 01:26:51;;;;;;;1.50;0.90;;;18.10;98.20;;;;;;5308858;26;20546;-79
2024/04/09 01:29:21;;;;;;;1.50;0.90;;;18.00;98.20;;;;;;5316927;26;21044;-78
2024/04/09 01:31:48;;;;;;;1.50;1.00;;;17.90;98.20;;;;;;5309764;26;21017;-78
2024/04/09 01:34:16;;;;;;;1.50;0.90;;;17.90;98.20;;;;;;5318643;26;20541;-79
2024/04/09 01:36:43;;;;;;;1.47;0.90;;;17.80;98.20;;;;;;5309823;26;20625;-78
2024/04/09 01:39:14;;;;;;;1.50;0.90;;;17.80;98.20;;;;;;5318631;26;20487;-78
2024/04/09 01:41:43;;;;;;;1.50;0.90;;;17.70;98.20;;;;;;5304629;26;20568;-79
2024/04/09 01:44:11;;;;;;;1.43;1.00;;;17.70;98.20;;;;;;5312724;26;20483;-78
2024/04/09 01:46:37;;;;;;;1.50;0.90;;;17.70;98.20;;;;;;5307977;26;20905;-78
2024/04/09 01:49:08;;;;;;;1.47;0.90;;;17.60;98.20;;;;;;5313196;26;20535;-79
2024/04/09 01:51:34;;;;;;;1.50;0.90;;;17.60;98.20;;;;;;5306020;26;20501;-79
2024/04/09 01:54:03;;;;;;;1.50;0.90;;;17.50;98.20;;;;;;5320272;26;20596;-79
2024/04/09 01:56:29;;;;;;;1.40;0.90;;;17.50;98.20;;;;;;5304755;26;20497;-78
2024/04/09 01:59:01;;;;;;;1.47;0.90;;;17.40;98.20;;;;;;5320409;26;20541;-78
2024/04/09 02:01:27;;;;;;;1.50;1.00;;;17.40;98.20;;;;;;5300648;26;20263;-79
2024/04/09 02:03:56;;;;;;;1.50;1.00;;;17.40;98.20;;;;;;5324665;26;21076;-79
2024/04/09 02:06:23;;;;;;;1.43;0.90;;;17.30;98.20;;;;;;5303721;26;20501;-79
2024/04/09 02:08:53;;;;;;;1.50;1.17;;;17.30;98.20;;;;;;5322843;26;20838;-78
2024/04/09 02:11:22;;;;;;;1.43;0.90;;;17.30;98.20;;;;;;5296329;21;20801;-76
2024/04/09 02:13:51;;;;;;;1.50;1.00;;;17.20;98.20;;;;;;5290457;27;20477;-76
2024/04/09 02:16:21;;;;;;;1.50;1.00;;;17.20;98.20;;;;;;5268666;26;20588;-75
2024/04/09 02:18:50;;;;;;;1.50;0.90;;;17.20;98.20;;;;;;5291424;26;20597;-76
2024/04/09 02:21:16;;;;;;;1.50;1.00;;;17.10;98.20;;;;;;5267887;26;20559;-76
2024/04/09 02:23:47;;;;;;;1.47;1.00;;;17.10;98.20;;;;;;5291278;27;20840;-77
2024/04/09 02:26:13;;;;;;;1.43;0.90;;;17.10;98.20;;;;;;5265651;26;20390;-76
2024/04/09 02:28:41;;;;;;;1.50;0.90;;;17.10;98.20;;;;;;5291051;27;20899;-77
2024/04/09 02:31:07;;;;;;;1.47;0.90;;;17.10;98.20;;;;;;5261985;26;20384;-76
2024/04/09 02:33:38;;;;;;;1.50;1.00;;;17.10;98.20;;;;;;5292250;26;20469;-76
2024/04/09 02:36:06;;;;;;;1.50;1.00;;;17.10;98.20;;;;;;5265127;26;20658;-77
2024/04/09 02:38:38;;;;;;;1.50;1.00;;;17.10;98.20;;;;;;5292322;27;20540;-77
2024/04/09 02:41:05;;;;;;;1.47;0.90;;;17.10;98.20;;;;;;5259674;26;20533;-76
2024/04/09 02:43:33;;;;;;;1.50;0.90;;;17.00;98.20;;;;;;5293184;26;20476;-75
2024/04/09 02:46:00;;;;;;;1.47;0.90;;;17.00;98.20;;;;;;5262562;26;20477;-75
2024/04/09 02:48:29;;;;;;;1.50;1.00;;;17.00;98.20;;;;;;5295665;27;20913;-76
2024/04/09 02:50:59;;;;;;;1.50;0.90;;;17.00;98.20;;;;;;5262005;26;20481;-76
2024/04/09 02:53:28;;;;;;;1.40;1.00;;;17.00;98.20;;;;;;5290259;27;20488;-75
2024/04/09 02:56:01;;;;;;;1.50;0.97;;;17.00;98.20;;;;;;5264190;26;20489;-75
2024/04/09 02:58:30;;;;;;;1.40;0.90;;;16.90;98.20;;;;;;5289603;26;20485;-76
2024/04/09 03:00:58;;;;;;;1.50;1.00;;;16.90;98.20;;;;;;5265680;26;20620;-77
2024/04/09 03:03:26;;;;;;;1.50;1.00;;;16.90;98.20;;;;;;5298038;27;20525;-77
2024/04/09 03:05:52;;;;;;;1.50;0.90;;;16.80;98.20;;;;;;5264844;26;20524;-76
2024/04/09 03:08:23;;;;;;;1.50;1.00;;;16.80;98.20;;;;;;5296529;26;20880;-76
2024/04/09 03:10:49;;;;;;;1.50;0.90;;;16.80;98.20;;;;;;5262851;26;20752;-77
2024/04/09 03:13:17;;;;;;;1.47;1.00;;;16.80;98.20;;;;;;5298781;27;20480;-76
2024/04/09 03:15:43;;;;;;;1.40;0.90;;;16.70;98.20;;;;;;5272571;27;20321;-77
2024/04/09 03:18:11;;;;;;;1.47;1.00;;;16.70;98.20;;;;;;5286736;26;20578;-78
2024/04/09 03:20:37;;;;;;;1.50;1.00;;;16.70;98.20;;;;;;5273254;27;20250;-75
2024/04/09 03:23:06;;;;;;;1.50;1.10;;;16.70;98.20;;;;;;5291410;26;21192;-77
2024/04/09 03:25:34;;;;;;;1.50;0.93;;;16.70;98.20;;;;;;5272765;27;20305;-75
2024/04/09 03:28:03;;;;;;;1.40;1.00;;;16.70;98.20;;;;;;5288377;26;20586;-76
2024/04/09 03:30:29;;;;;;;1.50;1.00;;;16.70;98.20;;;;;;5272196;27;20481;-75
2024/04/09 03:32:58;;;;;;;1.50;1.10;;;16.70;98.20;;;;;;5290536;26;20550;-77
2024/04/09 03:35:23;;;;;;;1.50;1.00;;;16.70;98.20;;;;;;5276319;27;20284;-76
2024/04/09 03:37:52;;;;;;;1.50;1.00;;;16.60;98.20;;;;;;5290510;26;20503;-76
2024/04/09 03:40:20;;;;;;;1.50;0.90;;;16.60;98.20;;;;;;5274237;27;21652;-76
2024/04/09 03:42:51;;;;;;;1.50;1.10;;;16.60;98.20;;;;;;5290697;26;20551;-76
2024/04/09 03:45:17;;;;;;;1.50;1.00;;;16.60;98.20;;;;;;5274073;27;20533;-76
2024/04/09 03:47:45;;;;;;;1.50;1.00;;;16.60;98.20;;;;;;5289596;26;20893;-76
2024/04/09 03:50:11;;;;;;;1.50;0.97;;;16.60;98.20;;;;;;5273992;27;20623;-76
2024/04/09 03:52:40;;;;;;;1.47;1.00;;;16.60;98.20;;;;;;5285492;26;20507;-75
2024/04/09 03:55:06;;;;;;;1.50;0.90;;;16.60;98.20;;;;;;5274854;27;20288;-76
2024/04/09 03:57:34;;;;;;;1.43;0.90;;;16.60;98.20;;;;;;5285614;26;20503;-77
2024/04/09 04:00:04;;;;;;;1.40;0.90;;;16.60;98.20;;;;;;5272448;27;20549;-75
2024/04/09 04:02:33;;;;;;;1.50;1.00;;;16.60;98.20;;;;;;5280260;26;20589;-74
2024/04/09 04:04:59;;;;;;;1.47;0.90;;;16.50;98.20;;;;;;5273271;27;20484;-76
2024/04/09 04:07:27;;;;;;;1.50;1.00;;;16.50;98.20;;;;;;5284355;26;20572;-77
2024/04/09 04:09:53;;;;;;;1.47;1.00;;;16.50;98.20;;;;;;5275939;27;20283;-76
2024/04/09 04:12:22;;;;;;;1.43;0.97;;;16.50;98.20;;;;;;5283871;26;20495;-76
2024/04/09 04:14:47;;;;;;;1.50;1.00;;;16.50;98.20;;;;;;5281516;27;20254;-77
2024/04/09 04:17:18;;;;;;;1.50;1.00;;;16.50;98.20;;;;;;5280560;26;20507;-75
2024/04/09 04:19:44;;;;;;;1.47;0.90;;;16.40;98.20;;;;;;5281888;26;20233;-75
2024/04/09 04:22:13;;;;;;;1.47;1.00;;;16.40;98.20;;;;;;5280798;26;20677;-77
2024/04/09 04:24:38;;;;;;;1.50;0.90;;;16.40;98.20;;;;;;5280170;26;20305;-77
2024/04/09 04:27:07;;;;;;;1.50;1.00;;;16.30;98.20;;;;;;5278825;26;20592;-75
2024/04/09 04:29:33;;;;;;;1.50;0.97;;;16.30;98.20;;;;;;5283173;27;20334;-76
2024/04/09 04:32:02;;;;;;;1.50;1.00;;;16.30;98.20;;;;;;5282071;26;20966;-77
2024/04/09 04:34:31;;;;;;;1.50;1.00;;;16.30;98.20;;;;;;5285656;27;20280;-77
2024/04/09 04:36:59;;;;;;;1.50;0.90;;;16.20;98.20;;;;;;5278672;26;20578;-78
2024/04/09 04:39:26;;;;;;;1.47;0.90;;;16.20;98.20;;;;;;5282311;26;20544;-77
2024/04/09 04:41:58;;;;;;;1.47;0.90;;;16.20;98.20;;;;;;5280866;26;20566;-76
2024/04/09 04:44:24;;;;;;;1.43;1.00;;;16.20;98.20;;;;;;5284414;27;20548;-76
2024/04/09 04:46:53;;;;;;;1.50;1.00;;;16.10;98.20;;;;;;5283362;26;20551;-78
2024/04/09 04:49:21;;;;;;;1.90;1.73;;;16.10;98.20;;;;;;5287965;27;20484;-78
2024/04/09 04:51:50;;;;;;;1.50;1.00;;;16.10;98.20;;;;;;5281572;26;20653;-78
2024/04/09 04:54:18;;;;;;;1.50;1.00;;;16.10;98.20;;;;;;5290237;27;20515;-77
2024/04/09 04:56:44;;;;;;;1.50;1.00;;;16.10;98.20;;;;;;5279172;26;20487;-79
2024/04/09 04:59:12;;;;;;;1.40;0.90;;;16.10;98.20;;;;;;5288740;27;20563;-79
2024/04/09 05:01:40;;;;;;;1.50;1.00;;;16.10;98.20;;;;;;5275983;26;20570;-78
2024/04/09 05:04:08;;;;;;;1.50;1.00;;;16.00;98.20;;;;;;5288220;26;20541;-78
2024/04/09 05:06:34;;;;;;;1.50;1.00;;;16.00;98.20;;;;;;5276239;26;20491;-78
2024/04/09 05:09:07;;;;;;;1.50;1.00;;;16.00;98.20;;;;;;5292796;27;20565;-77
2024/04/09 05:11:33;;;;;;;1.50;1.10;;;16.00;98.20;;;;;;5275596;26;20353;-77
2024/04/09 05:14:01;;;;;;;1.50;1.00;;;16.00;98.20;;;;;;5296079;26;20750;-80
2024/04/09 05:16:27;;;;;;;1.50;0.90;;;16.00;98.20;;;;;;5270120;26;20268;-79
2024/04/09 05:18:56;;;;;;;1.50;1.10;;;15.90;98.20;;;;;;5296102;27;20473;-78
2024/04/09 05:21:22;;;;;;;1.50;1.00;;;15.90;98.20;;;;;;5274286;26;20384;-78
2024/04/09 05:23:50;;;;;;;1.43;0.90;;;15.90;98.20;;;;;;5296885;27;20473;-79
2024/04/09 05:26:19;;;;;;;1.50;0.90;;;15.90;98.20;;;;;;5274893;26;20503;-80
2024/04/09 05:28:47;;;;;;;1.50;0.90;;;15.90;98.20;;;;;;5298583;26;20539;-80
2024/04/09 05:31:13;;;;;;;1.50;1.00;;;15.90;98.20;;;;;;5271333;26;20499;-80
2024/04/09 05:33:42;;;;;;;1.50;0.97;;;15.90;98.20;;;;;;5295049;27;20635;-79
2024/04/09 05:36:08;;;;;;;1.50;0.97;;;15.80;98.20;;;;;;5269886;26;20361;-80
2024/04/09 05:38:36;;;;;;;1.50;0.90;;;15.80;98.20;;;;;;5297415;26;20616;-79
2024/04/09 05:41:03;;;;;;;1.50;0.93;;;15.80;98.20;;;;;;5270806;26;20250;-79
2024/04/09 05:43:34;;;;;;;1.43;1.00;;;15.80;98.20;;;;;;5300953;27;20484;-80
2024/04/09 05:45:59;;;;;;;1.50;1.00;;;15.80;98.20;;;;;;5267935;26;20465;-80
2024/04/09 05:48:28;;;;;;;1.50;0.90;;;15.80;98.20;;;;;;5296543;27;20619;-80
2024/04/09 05:50:54;;;;;;;1.50;0.90;;;15.70;98.20;;;;;;5264299;26;20293;-78
2024/04/09 05:53:22;;;;;;;1.50;0.90;;;15.70;98.20;;;;;;5300358;26;20469;-78
2024/04/09 05:55:54;;;;;;;1.50;0.90;;;15.70;98.20;;;;;;5265019;26;20313;-79
2024/04/09 05:58:23;;;;;;;1.50;0.90;;;15.70;98.20;;;;;;5300296;26;20527;-79
2024/04/09 06:00:53;;;;;;;1.50;1.00;;;15.60;98.20;;;;;;5268641;26;20559;-83
2024/04/09 06:03:21;;;;;;;1.50;1.00;;;15.60;98.20;;;;;;5302378;26;20584;-78
2024/04/09 06:05:47;;;;;;;1.47;0.90;;;15.50;98.20;;;;;;5268123;26;20527;-83
2024/04/09 06:08:16;;;;;;;1.50;0.90;;;15.50;98.20;;;;;;5299872;26;20470;-81
2024/04/09 06:10:42;;;;;;;1.47;1.00;;;15.50;98.20;;;;;;5271056;27;20373;-82
2024/04/09 06:13:12;;;;;;;1.50;1.00;;;15.40;98.20;;;;;;5290820;26;20504;-81
2024/04/09 06:15:38;;;;;;;1.50;1.00;;;15.30;98.20;;;;;;5276382;27;20237;-81
2024/04/09 06:18:10;;;;;;;1.50;1.00;;;15.30;98.20;;;;;;5290823;26;20495;-79
2024/04/09 06:20:36;;;;;;;1.50;1.00;;;15.30;98.20;;;;;;5270982;27;20898;-80
2024/04/09 06:23:05;;;;;;;1.50;1.10;;;15.20;98.20;;;;;;5233137;27;20551;-80
2024/04/09 06:25:31;;;;;;;1.50;1.10;;;15.20;98.20;;;;;;5233361;27;20486;-81
2024/04/09 06:27:59;;;;;;;1.50;1.00;;;15.20;98.20;;;;;;5276902;26;20584;-79
2024/04/09 06:30:25;;;;;;;1.50;1.00;;;15.20;98.20;;;;;;5240031;27;20326;-80
2024/04/09 06:32:54;;;;;;;1.50;1.00;;;15.20;98.20;;;;;;5277779;27;20508;-80
2024/04/09 06:35:23;;;;;;;1.50;1.00;;;15.20;98.20;;;;;;5239628;27;20497;-79
2024/04/09 06:37:52;;;;;;;1.50;1.00;;;15.20;98.20;;;;;;5266203;26;20673;-79
2024/04/09 06:40:18;;;;;;;1.50;0.93;;;15.10;98.20;;;;;;5229603;27;20481;-78
2024/04/09 06:42:46;;;;;;;1.50;0.90;;;15.00;98.20;;;;;;5253326;27;20898;-80
2024/04/09 06:45:12;;;;;;;1.50;1.00;;;15.00;98.20;;;;;;5225467;27;20287;-80
2024/04/09 06:47:41;;;;;;;1.50;1.00;;;14.90;98.20;;;;;;5255365;26;20587;-79
2024/04/09 06:50:06;;;;;;;1.50;1.00;;;14.80;98.20;;;;;;5231625;27;20490;-79
2024/04/09 06:52:38;;;;;;;1.50;1.00;;;14.80;98.20;;;;;;5261348;26;20551;-78
2024/04/09 06:55:04;;;;;;;1.50;1.00;;;14.70;98.20;;;;;;5233868;27;20239;-80
2024/04/09 06:57:33;;;;;;;1.50;1.00;;;14.60;98.20;;;;;;5263548;27;20491;-81
2024/04/09 06:59:59;;;;;;;1.50;1.10;;;14.50;98.20;;;;;;5242562;27;21053;-79
2024/04/09 07:02:28;;;;;;;1.50;1.00;;;14.50;98.20;;;;;;5266321;27;20668;-78
2024/04/09 07:04:53;;;;;;;1.50;1.00;;;14.40;98.20;;;;;;5243582;27;20652;-78
2024/04/09 07:07:22;;;;;;;1.50;1.00;;;14.40;98.20;;;;;;5262035;26;20552;-78
2024/04/09 07:09:52;;;;;;;1.50;1.00;;;14.40;98.20;;;;;;5244246;27;20306;-79
2024/04/09 07:12:20;;;;;;;1.50;1.10;;;14.30;98.20;;;;;;5261777;26;20616;-78
2024/04/09 07:14:46;;;;;;;1.50;1.00;;;14.30;98.20;;;;;;5237015;27;20795;-77
2024/04/09 07:17:15;;;;;;;1.50;1.00;;;14.20;98.20;;;;;;5253517;27;20503;-78
2024/04/09 07:19:41;;;;;;;1.60;1.20;;;14.20;98.20;;;;;;5245173;27;20250;-79
2024/04/09 07:22:09;;;;;;;1.50;1.00;;;14.20;98.20;;;;;;5244616;27;20601;-77
2024/04/09 07:24:35;;;;;;;1.50;0.90;;;14.10;98.20;;;;;;5243820;27;20238;-78
2024/04/09 07:27:07;;;;;;;1.50;0.90;;;14.10;98.20;;;;;;5244875;26;21041;-79
2024/04/09 07:29:34;;;;;;;1.50;1.10;;;14.10;98.20;;;;;;5237834;27;20585;-79
2024/04/09 07:32:05;;;;;;;1.50;0.90;;;14.10;98.20;;;;;;5269099;26;20897;-78
2024/04/09 07:34:31;;;;;;;1.50;0.93;;;14.10;98.20;;;;;;5289804;26;20477;-80
2024/04/09 07:36:59;;;;;;;1.50;1.00;;;14.10;98.20;;;;;;5288025;26;20550;-80
2024/04/09 07:39:25;;;;;;;1.50;1.00;;;14.10;98.20;;;;;;5284980;26;20249;-78
2024/04/09 07:41:54;;;;;;;1.47;1.00;;;14.10;98.20;;;;;;5273915;26;20567;-79
2024/04/09 07:44:23;;;;;;;1.50;1.00;;;14.10;98.20;;;;;;5290182;26;20230;-79
2024/04/09 07:46:52;;;;;;;1.50;1.00;;;14.10;98.20;;;;;;5278451;26;20495;-79
2024/04/09 07:49:17;;;;;;;1.60;1.50;;;14.10;98.20;;;;;;5290308;26;20615;-79
2024/04/09 07:51:46;;;;;;;1.50;1.00;;;14.10;98.20;;;;;;5281211;26;20509;-78
2024/04/09 07:54:12;;;;;;;1.50;1.00;;;14.20;98.20;;;;;;5295773;26;20305;-77
2024/04/09 07:56:41;;;;;;;1.50;1.00;;;14.20;98.20;;;;;;5271326;26;20653;-78
2024/04/09 07:59:07;;;;;;;1.50;1.00;;;14.20;98.20;;;;;;5284733;26;20555;-77
2024/04/09 08:01:38;;;;;;;1.50;1.00;;;14.20;98.20;;;;;;5276265;26;20497;-79
2024/04/09 08:04:04;;;;;;;1.50;1.10;;;14.30;98.20;;;;;;5294159;26;20252;-79
2024/04/09 08:06:33;;;;;;;1.50;1.07;;;14.40;98.20;;;;;;5264787;26;20506;-79
2024/04/09 08:08:59;;;;;;;1.50;1.00;;;14.40;98.20;;;;;;5292267;26;20533;-79
2024/04/09 08:11:28;;;;;;;1.50;1.00;;;14.50;98.20;;;;;;5268385;26;20499;-79
2024/04/09 08:13:54;;;;;;;1.50;1.10;;;14.50;98.20;;;;;;5285280;26;20253;-78
2024/04/09 08:16:22;;;;;;;1.50;1.00;;;14.50;98.20;;;;;;5268664;26;20917;-79
2024/04/09 08:18:50;;;;;;;1.50;1.00;;;14.50;98.20;;;;;;5304650;26;20394;-81
2024/04/09 08:21:19;;;;;;;1.50;1.10;;;14.50;98.20;;;;;;5272292;26;20948;-81
2024/04/09 08:23:45;;;;;;;1.43;0.90;;;14.50;98.20;;;;;;5309623;26;20473;-79
2024/04/09 08:26:13;;;;;;;1.50;1.00;;;14.50;98.20;;;;;;5268411;26;20562;-77
2024/04/09 08:28:39;;;;;;;1.50;1.00;;;14.50;98.20;;;;;;5294472;26;20540;-78
2024/04/09 08:31:11;;;;;;;1.47;0.90;;;14.50;98.20;;;;;;5267706;26;20498;-80
2024/04/09 08:33:37;;;;;;;1.47;0.90;;;14.50;98.20;;;;;;5305287;26;20253;-79
2024/04/09 08:38:38;;;;;;;1.47;1.00;;;14.40;98.20;;;;;;5311260;26;20475;-79
2024/04/09 08:41:08;;;;;;;1.50;1.00;;;14.40;98.20;;;;;;5298069;26;20483;-80
2024/04/09 08:43:38;;;;;;;1.50;1.00;;;14.40;98.20;;;;;;5328662;26;20479;-80
2024/04/09 08:46:05;;;;;;;1.50;0.90;;;14.50;98.20;;;;;;5304311;26;20526;-80
2024/04/09 08:48:33;;;;;;;1.63;1.53;;;14.50;98.20;;;;;;5329112;26;20544;-80
2024/04/09 08:51:02;;;;;;;1.50;1.00;;;14.50;98.20;;;;;;5298151;26;21018;-79
2024/04/09 08:53:34;;;;;;;1.50;1.00;;;14.40;98.20;;;;;;5327794;26;20467;-80
2024/04/09 08:56:04;;;;;;;1.50;1.00;;;14.30;98.20;;;;;;5298210;26;20597;-80
2024/04/09 08:58:32;;;;;;;1.50;1.00;;;14.30;98.20;;;;;;5328137;26;20904;-77
2024/04/09 09:00:59;;;;;;;1.50;1.00;;;14.30;98.20;;;;;;5298144;26;21127;-80
2024/04/09 09:03:28;;;;;;;1.50;1.00;;;14.30;98.20;;;;;;5328757;26;20475;-80
2024/04/09 09:06:00;;;;;;;1.50;1.00;;;14.30;98.20;;;;;;5295066;26;20503;-79
2024/04/09 09:08:40;;;;;;;1.50;1.00;;;14.30;98.20;;;;;;5326920;26;20614;-79
2024/04/09 09:11:09;;;;;;;1.50;1.00;;;14.30;98.20;;;;;;5299027;26;20574;-79
2024/04/09 09:13:37;;;;;;;1.43;1.00;;;14.30;98.20;;;;;;5326589;26;21154;-79
2024/04/09 09:16:08;;;;;;;1.50;1.00;;;14.40;98.20;;;;;;5296408;26;20622;-78
2024/04/09 09:18:36;;;;;;;1.50;1.00;;;14.40;98.20;;;;;;5325983;26;20471;-78
2024/04/09 09:21:33;;;;;;;1.50;1.00;;;14.40;98.20;;;;;;5299699;26;20561;-79
2024/04/09 09:24:01;;;;;;;1.50;1.00;;;14.40;98.20;;;;;;5322022;26;20471;-80
2024/04/09 09:26:30;;;;;;;1.50;1.00;;;14.40;98.20;;;;;;5304766;26;20550;-78
2024/04/09 09:29:08;;;;;;;1.50;1.00;;;14.30;98.20;;;;;;5320234;26;21100;-79
2024/04/09 09:31:40;;;;;;;1.50;0.90;;;14.20;98.20;;;;;;5305508;26;20505;-79
2024/04/09 09:34:11;;;;;;;1.50;1.00;;;14.20;98.20;;;;;;5318690;26;20475;-78
2024/04/09 09:36:44;;;;;;;1.47;1.00;;;14.10;98.20;;;;;;5306358;26;20497;-78
2024/04/09 09:39:14;;;;;;;1.50;1.00;;;14.10;98.20;;;;;;5318212;26;20577;-79
2024/04/09 09:41:43;;;;;;;1.50;1.00;;;14.10;98.20;;;;;;5300934;26;20945;-79
2024/04/09 09:44:14;;;;;;;1.47;0.90;;;14.10;98.20;;;;;;5319045;26;20483;-79
2024/04/09 09:46:44;;;;;;;1.50;1.00;;;14.20;98.20;;;;;;5301347;26;20537;-79
2024/04/09 09:49:13;;;;;;;1.40;1.00;;;14.50;98.20;;;;;;5316350;26;20483;-79
2024/04/09 09:51:39;;;;;;;1.50;1.00;;;14.80;98.20;;;;;;5306596;26;20493;-79
2024/04/09 09:54:08;;;;;;;1.50;0.97;;;15.10;98.20;;;;;;5320028;26;21069;-78
2024/04/09 09:56:35;;;;;;;1.47;1.00;;;15.50;98.20;;;;;;5304721;26;20359;-79
2024/04/09 09:59:08;;;;;;;1.50;0.90;;;15.80;98.10;;;;;;5312054;26;20602;-78
2024/04/09 10:01:35;;;;;;;1.50;0.90;;;16.10;96.70;;;;;;5305583;26;20611;-79
2024/04/09 10:04:06;;;;;;;1.50;1.00;;;16.30;96.20;;;;;;5316212;26;20487;-80
2024/04/09 10:06:32;;;;;;;1.40;0.90;;;16.50;95.90;;;;;;5299972;26;21155;-79
2024/04/09 10:09:08;;;;;;;1.50;1.00;;;16.60;96.10;;;;;;5318322;26;20520;-80
2024/04/09 10:11:42;;;;;;;1.50;0.90;;;16.60;95.00;;;;;;5302405;26;20364;-78
2024/04/09 10:14:13;;;;;;;1.47;0.90;;;16.60;95.00;;;;;;5317484;26;20597;-81
2024/04/09 10:16:39;;;;;;;1.50;0.90;;;16.60;94.80;;;;;;5304652;26;20493;-80
2024/04/09 10:19:10;;;;;;;1.50;0.90;;;16.60;95.40;;;;;;5320767;26;20480;-80
2024/04/09 10:21:39;;;;;;;1.50;0.97;;;16.60;95.10;;;;;;5305320;26;20669;-79
2024/04/09 10:24:42;;;;;;;1.50;0.90;;;16.60;96.00;;;;;;5322618;26;20483;-79
2024/04/09 10:27:11;;;;;;;1.47;0.90;;;16.70;94.70;;;;;;5303926;26;20509;-80
2024/04/09 10:29:53;;;;;;;1.50;1.00;;;16.70;94.40;;;;;;5310400;26;20532;-79
2024/04/09 10:32:19;;;;;;;1.47;0.90;;;16.60;94.50;;;;;;5316184;26;20863;-79
2024/04/09 10:34:48;;;;;;;1.47;1.00;;;16.60;94.10;;;;;;5311255;26;20531;-78
2024/04/09 10:37:16;;;;;;;1.43;0.90;;;16.50;93.10;;;;;;5314365;26;20506;-81
2024/04/09 10:39:45;;;;;;;1.50;0.90;;;16.30;92.80;;;;;;5313370;26;20475;-80
2024/04/09 10:42:11;;;;;;;1.50;0.90;;;16.20;92.00;;;;;;5313681;26;20612;-79
2024/04/09 10:44:42;;;;;;;1.50;0.90;;;16.10;92.50;;;;;;5312310;26;20479;-78
2024/04/09 10:47:09;;;;;;;1.50;1.00;;;16.00;93.10;;;;;;5311317;26;20326;-78
2024/04/09 10:49:40;;;;;;;1.50;0.97;;;16.00;93.30;;;;;;5308390;26;20913;-78
2024/04/09 10:52:07;;;;;;;1.50;1.10;;;15.90;91.90;;;;;;5311627;26;20550;-77
2024/04/09 10:54:35;;;;;;;1.50;0.93;;;15.90;92.30;;;;;;5310486;26;20523;-78
2024/04/09 10:57:01;;;;;;;1.50;0.90;;;15.80;91.20;;;;;;5302123;26;20680;-79
2024/04/09 10:59:30;;;;;;;1.47;0.90;;;15.80;91.00;;;;;;5307396;26;21083;-78
2024/04/09 11:01:58;;;;;;;1.47;0.90;;;15.90;92.70;;;;;;5309658;26;20709;-77
2024/04/09 11:04:27;;;;;;;1.50;1.00;;;16.00;91.90;;;;;;5312609;26;20471;-80
2024/04/09 11:06:53;;;;;;;1.47;1.00;;;16.10;91.80;;;;;;5306081;26;20581;-79
2024/04/09 11:09:23;;;;;;;1.50;0.90;;;16.20;90.40;;;;;;5312755;26;20487;-81
2024/04/09 11:11:49;;;;;;;1.43;0.90;;;16.30;92.00;;;;;;5307978;26;20537;-79
2024/04/09 11:14:18;;;;;;;1.47;0.90;;;16.50;90.00;;;;;;5315559;26;20531;-78
2024/04/09 11:16:46;;;;;;;1.50;1.00;;;16.60;90.20;;;;;;5306049;26;20934;-78
2024/04/09 11:19:23;;;;;;;1.47;0.90;;;16.70;89.20;;;;;;5306892;26;20483;-78
2024/04/09 11:22:03;;;;;;;1.50;0.90;;;16.80;89.70;;;;;;5303388;26;20501;-81
2024/04/09 11:24:32;;;;;;;1.47;0.90;;;16.90;90.20;;;;;;5308827;26;20563;-77
2024/04/09 11:26:59;;;;;;;1.47;0.90;;;16.90;89.80;;;;;;5307634;26;20517;-78
2024/04/09 11:29:28;;;;;;;1.40;0.90;;;16.90;88.50;;;;;;5304257;26;20495;-79
2024/04/09 11:31:54;;;;;;;1.43;0.90;;;16.80;88.20;;;;;;5305901;26;21172;-77
2024/04/09 11:34:30;;;;;;;1.47;0.90;;;16.90;89.50;;;;;;5308996;26;20550;-78
2024/04/09 11:36:58;;;;;;;1.47;0.90;;;16.90;89.60;;;;;;5307054;26;21043;-80
2024/04/09 11:39:27;;;;;;;1.50;0.90;;;17.10;88.50;;;;;;5310140;26;20518;-80
2024/04/09 11:41:54;;;;;;;1.50;0.90;;;17.20;86.60;;;;;;5307727;26;20498;-79
2024/04/09 11:44:23;;;;;;;1.50;1.00;;;17.30;86.80;;;;;;5311164;26;20475;-79
2024/04/09 11:46:49;;;;;;;1.47;1.00;;;17.30;86.60;;;;;;5305930;26;20602;-77
2024/04/09 11:49:18;;;;;;;1.43;0.90;;;17.30;84.40;;;;;;5317341;26;20483;-79
2024/04/09 11:51:47;;;;;;;1.47;0.90;;;17.20;85.60;;;;;;5302175;26;20494;-78
2024/04/09 11:54:16;;;;;;;1.50;0.90;;;17.20;86.40;;;;;;5313765;26;20471;-78
2024/04/09 11:56:41;;;;;;;1.47;0.90;;;17.20;86.00;;;;;;5303290;26;20847;-78
2024/04/09 11:59:10;;;;;;;1.50;0.90;;;17.30;86.00;;;;;;5315350;26;20599;-77
2024/04/09 12:01:36;;;;;;;1.47;0.90;;;17.50;85.80;;;;;;5303476;26;20674;-79
2024/04/09 12:04:04;;;;;;;1.47;0.90;;;17.80;85.40;;;;;;5318210;26;20722;-81
2024/04/09 12:06:31;;;;;;;1.50;0.90;;;18.20;85.50;;;;;;5296598;26;20290;-79
2024/04/09 12:09:03;;;;;;;1.50;0.90;;;18.50;85.00;;;;;;5316861;26;21022;-81
2024/04/09 12:11:29;;;;;;;1.47;1.10;;;18.60;84.00;;;;;;5299599;26;20259;-78
2024/04/09 12:13:58;;;;;;;1.50;0.90;;;18.70;83.80;;;;;;5319026;26;20551;-77
2024/04/09 12:16:24;;;;;;;2.07;1.87;;;18.90;84.10;;;;;;5298564;26;20873;-78
2024/04/09 12:18:52;;;;;;;1.50;0.90;;;19.10;84.50;;;;;;5319555;26;20554;-81
2024/04/09 12:21:18;;;;;;;1.40;0.90;;;19.40;84.00;;;;;;5298643;26;20286;-81
2024/04/09 12:23:47;;;;;;;1.47;0.90;;;19.50;82.30;;;;;;5322141;26;20483;-79
2024/04/09 12:26:15;;;;;;;1.50;0.90;;;19.60;81.30;;;;;;5296050;26;21013;-81
2024/04/09 12:28:44;;;;;;;1.47;0.90;;;19.80;80.80;;;;;;5316846;26;20518;-77
2024/04/09 12:31:10;;;;;;;1.47;0.90;;;19.80;76.90;;;;;;5290068;26;21336;-78
2024/04/09 12:33:39;;;;;;;1.43;0.90;;;19.60;77.30;;;;;;5321633;26;20479;-78
2024/04/09 12:36:05;;;;;;;1.40;0.90;;;19.40;78.50;;;;;;5295202;26;20268;-77
2024/04/09 12:38:34;;;;;;;1.50;1.00;;;19.20;79.00;;;;;;5323394;26;20523;-79
2024/04/09 12:41:00;;;;;;;1.47;0.90;;;18.80;79.40;;;;;;5294460;26;20916;-78
2024/04/09 12:43:31;;;;;;;1.50;0.90;;;18.80;80.20;;;;;;5312052;26;20559;-79
2024/04/09 12:45:58;;;;;;;1.50;0.97;;;18.70;80.30;;;;;;5293731;26;20294;-78
2024/04/09 12:48:26;;;;;;;1.40;0.90;;;18.50;81.00;;;;;;5322200;26;20532;-78
2024/04/09 12:50:52;;;;;;;1.53;1.10;;;18.50;80.60;;;;;;5287991;26;20555;-79
2024/04/09 12:53:20;;;;;;;1.43;0.90;;;18.40;79.20;;;;;;5324987;26;20593;-78
2024/04/09 12:55:47;;;;;;;1.47;0.90;;;18.30;80.20;;;;;;5294448;26;20233;-80